Acorn Park, Oregon
Current Conditions -  °F | °C
As of 9:23 PM on Friday 24 Oct 2014 (Local Time) from KEUG Reporting Station
Moderate Fog Moderate Fog  
Wind Chill: 11°   Ceiling: 200
Heat Index: 11°   Visibility: 0.25mi
Dew Point: 10°   Wind: 9mph
Humidity: 96%   Direction: 360°N
Pressure: 29.72"   Gusts: NA
Location:  44.0318°N, 123.235°W
Report Text: KEUG 250423Z 36008KT 1/4SM R16R/P6000FT FG OVC002 11/10 A2972 RMK AO2 SFC VIS 1/2 T01060100
Loading
Personal Weather Stations






























Interactive Weather Map
Tropical Storm Tracking
New forecast layout! Learn more

10-Day Weather Forecast

Advertisements
Track Severe Weather on mobile